createdAt,value
2019-05-06T00:01:24.084Z,96.90
2019-05-06T00:03:54.190Z,97.10
2019-05-06T00:06:23.667Z,97.20
2019-05-06T00:08:54.374Z,97.40
2019-05-06T00:11:23.809Z,97.40
2019-05-06T00:13:54.358Z,97.50
2019-05-06T00:16:23.812Z,97.60
2019-05-06T00:18:54.082Z,97.70
2019-05-06T00:21:24.361Z,97.70
2019-05-06T00:23:54.579Z,97.50
2019-05-06T00:26:36.867Z,97.70
2019-05-06T00:29:09.753Z,98.00
2019-05-06T00:31:38.145Z,98.20
2019-05-06T00:34:06.576Z,98.20
2019-05-06T00:36:34.943Z,98.00
2019-05-06T00:39:05.070Z,97.80
2019-05-06T00:41:36.420Z,97.90
2019-05-06T00:44:04.205Z,98.00
2019-05-06T00:46:34.490Z,98.10
2019-05-06T00:49:03.808Z,98.10
2019-05-06T00:51:33.843Z,98.20
2019-05-06T00:54:10.165Z,98.40
2019-05-06T00:56:38.538Z,98.40
2019-05-06T00:59:06.944Z,98.50
2019-05-06T01:01:35.335Z,98.60
2019-05-06T01:04:05.144Z,98.90
2019-05-06T01:06:34.469Z,99.10
2019-05-06T01:09:04.593Z,99.00
2019-05-06T01:11:34.624Z,98.90
2019-05-06T01:14:04.800Z,98.80
2019-05-06T01:16:34.625Z,98.70
2019-05-06T01:19:04.692Z,98.60
2019-05-06T01:21:34.167Z,98.60
2019-05-06T01:24:03.964Z,98.70
2019-05-06T01:26:33.760Z,98.80
2019-05-06T01:29:03.900Z,98.70
2019-05-06T01:31:42.297Z,98.70
2019-05-06T01:34:04.306Z,98.60
2019-05-06T01:36:34.370Z,98.30
2019-05-06T01:39:06.921Z,98.30
2019-05-06T01:41:36.924Z,98.20
2019-05-06T01:44:05.654Z,98.10
2019-05-06T01:46:34.124Z,97.90
2019-05-06T01:49:04.286Z,97.70
2019-05-06T01:51:34.602Z,97.50
2019-05-06T01:54:03.799Z,97.30
2019-05-06T01:56:33.726Z,97.10
2019-05-06T01:59:04.375Z,97.00
2019-05-06T02:01:34.169Z,96.90
2019-05-06T02:04:04.227Z,96.80
2019-05-06T02:06:34.332Z,96.70
2019-05-06T02:09:04.571Z,96.60
2019-05-06T02:11:33.741Z,96.60
2019-05-06T02:14:04.551Z,96.60
2019-05-06T02:16:34.278Z,96.70
2019-05-06T02:19:04.113Z,96.60
2019-05-06T02:21:34.284Z,96.20
2019-05-06T02:24:04.390Z,95.90
2019-05-06T02:26:34.319Z,95.70
2019-05-06T02:29:04.449Z,95.20
2019-05-06T02:31:45.959Z,95.00
2019-05-06T02:34:15.463Z,94.70
2019-05-06T02:36:45.829Z,94.30
2019-05-06T02:39:14.347Z,94.00
2019-05-06T02:41:43.095Z,93.80
2019-05-06T02:44:13.771Z,93.70
2019-05-06T02:46:44.154Z,93.50
2019-05-06T02:49:32.778Z,93.20
2019-05-06T02:52:03.100Z,93.10
2019-05-06T02:54:34.128Z,92.80
2019-05-06T02:57:03.914Z,92.70
2019-05-06T02:59:33.131Z,92.60
2019-05-06T03:02:03.363Z,92.60
2019-05-06T03:04:33.152Z,92.60
2019-05-06T03:07:03.737Z,92.70
2019-05-06T03:09:33.732Z,92.70
2019-05-06T03:12:03.620Z,93.10
2019-05-06T03:14:34.245Z,92.70
2019-05-06T03:17:03.571Z,92.80
2019-05-06T03:19:34.179Z,92.50
2019-05-06T03:22:04.114Z,92.50
2019-05-06T03:24:34.165Z,92.50
2019-05-06T03:27:04.502Z,92.50
2019-05-06T03:29:33.414Z,92.50
2019-05-06T03:32:06.619Z,92.60
2019-05-06T03:34:52.799Z,92.80
2019-05-06T03:37:06.446Z,93.10
2019-05-06T03:39:33.829Z,93.30
2019-05-06T03:42:04.636Z,93.60
2019-05-06T03:44:33.223Z,93.90
2019-05-06T03:47:16.202Z,94.10
2019-05-06T03:49:50.213Z,94.50
2019-05-06T03:52:19.191Z,94.80
2019-05-06T03:54:47.560Z,95.20
2019-05-06T03:57:15.976Z,95.60
2019-05-06T03:59:44.419Z,95.90
2019-05-06T04:02:13.427Z,96.30
2019-05-06T04:04:43.945Z,96.80
2019-05-06T04:07:13.970Z,97.20
2019-05-06T04:09:44.148Z,97.70
2019-05-06T04:12:12.848Z,98.10
2019-05-06T04:14:43.345Z,98.50
2019-05-06T04:17:13.242Z,98.80
2019-05-06T04:19:43.793Z,99.10
2019-05-06T04:22:14.063Z,99.20
2019-05-06T04:24:44.071Z,99.40
2019-05-06T04:27:28.123Z,99.40
2019-05-06T04:29:56.509Z,99.40
2019-05-06T04:32:24.930Z,99.40
2019-05-06T04:34:53.693Z,99.40
2019-05-06T04:37:24.227Z,99.60
2019-05-06T04:39:53.237Z,99.80
2019-05-06T04:42:23.243Z,99.90
2019-05-06T04:44:53.205Z,99.90
2019-05-06T04:47:24.166Z,99.90
2019-05-06T04:49:53.272Z,99.90
2019-05-06T04:52:22.909Z,99.90
2019-05-06T04:54:53.457Z,99.90
2019-05-06T04:57:23.816Z,99.90
2019-05-06T04:59:54.221Z,99.90
2019-05-06T05:02:23.010Z,99.90
2019-05-06T05:04:52.845Z,99.90
2019-05-06T05:07:22.463Z,99.90
2019-05-06T05:09:53.505Z,99.90
2019-05-06T05:12:23.740Z,99.90
2019-05-06T05:15:05.944Z,99.90
2019-05-06T05:17:38.707Z,99.90
2019-05-06T05:20:08.151Z,99.90
2019-05-06T05:22:36.628Z,99.90
2019-05-06T05:25:06.262Z,99.90
2019-05-06T05:27:34.660Z,99.90
2019-05-06T05:30:03.045Z,99.90
2019-05-06T05:32:32.097Z,99.90
2019-05-06T05:35:02.050Z,99.90
2019-05-06T05:37:32.692Z,99.90
2019-05-06T05:40:02.822Z,99.90
2019-05-06T05:42:48.888Z,99.90
2019-05-06T05:45:17.383Z,99.90
2019-05-06T05:47:46.472Z,99.90
2019-05-06T05:50:16.488Z,99.90
2019-05-06T05:52:44.859Z,99.90
2019-05-06T05:55:13.267Z,99.90
2019-05-06T05:57:43.223Z,99.90
2019-05-06T06:00:12.901Z,99.90
2019-05-06T06:02:43.677Z,99.90
2019-05-06T06:05:12.433Z,99.90
2019-05-06T06:07:42.258Z,99.90
2019-05-06T06:10:28.340Z,99.90
2019-05-06T06:12:56.734Z,99.90
2019-05-06T06:15:32.876Z,99.90
2019-05-06T06:18:19.468Z,99.90
2019-05-06T06:20:49.492Z,99.90
2019-05-06T06:23:25.534Z,99.90
2019-05-06T06:25:53.995Z,99.90
2019-05-06T06:28:22.836Z,99.90
2019-05-06T06:31:04.812Z,99.90
2019-05-06T06:33:33.211Z,99.90
2019-05-06T06:36:03.245Z,99.90
2019-05-06T06:38:48.531Z,99.90
2019-05-06T06:41:16.888Z,99.90
2019-05-06T06:43:46.919Z,99.90
2019-05-06T06:46:15.517Z,99.90
2019-05-06T06:48:44.091Z,99.90
2019-05-06T06:51:12.517Z,99.90
2019-05-06T06:53:42.136Z,99.90
2019-05-06T06:56:22.010Z,99.90
2019-05-06T06:59:08.500Z,99.90
2019-05-06T07:01:42.326Z,99.90
2019-05-06T07:04:15.161Z,99.90
2019-05-06T07:06:53.014Z,99.90
2019-05-06T07:09:23.045Z,99.90
2019-05-06T07:11:52.613Z,99.90
2019-05-06T07:14:22.633Z,99.90
2019-05-06T07:16:53.269Z,99.80
2019-05-06T07:19:23.025Z,99.50
2019-05-06T07:21:53.065Z,99.00
2019-05-06T07:24:22.825Z,98.80
2019-05-06T07:26:56.188Z,98.50
2019-05-06T07:29:26.798Z,98.30
2019-05-06T07:31:54.660Z,97.80
2019-05-06T07:34:23.090Z,97.50
2019-05-06T07:36:52.433Z,97.10
2019-05-06T07:39:23.768Z,97.00
2019-05-06T07:41:55.640Z,96.80
2019-05-06T07:44:42.309Z,96.60
2019-05-06T07:47:15.080Z,96.50
2019-05-06T07:49:43.291Z,96.50
2019-05-06T07:52:12.380Z,95.70
2019-05-06T07:54:42.400Z,95.80
2019-05-06T07:57:12.665Z,95.80
2019-05-06T07:59:42.896Z,95.30
2019-05-06T08:02:12.923Z,95.00
2019-05-06T08:04:42.055Z,94.50
2019-05-06T08:07:12.600Z,94.10
2019-05-06T08:09:42.270Z,94.10
2019-05-06T08:12:12.391Z,93.80
2019-05-06T08:14:42.967Z,93.50
2019-05-06T08:17:14.063Z,93.30
2019-05-06T08:19:42.520Z,93.30
2019-05-06T08:22:18.445Z,93.40
2019-05-06T08:24:46.836Z,93.30
2019-05-06T08:27:15.256Z,92.70
2019-05-06T08:29:43.685Z,92.40
2019-05-06T08:32:12.309Z,91.90
2019-05-06T08:34:42.187Z,91.70
2019-05-06T08:37:15.349Z,91.40
2019-05-06T08:39:45.941Z,91.10
2019-05-06T08:42:13.776Z,90.60
2019-05-06T08:44:42.742Z,90.70
2019-05-06T08:47:13.158Z,90.80
2019-05-06T08:49:57.907Z,90.60
2019-05-06T08:52:27.892Z,90.50
2019-05-06T08:54:57.950Z,90.40
2019-05-06T08:57:26.359Z,90.70
2019-05-06T08:59:54.824Z,90.70
2019-05-06T09:02:24.509Z,90.60
2019-05-06T09:04:52.931Z,90.50
2019-05-06T09:07:21.360Z,90.60
2019-05-06T09:09:49.770Z,90.30
2019-05-06T09:12:18.240Z,90.10
2019-05-06T09:14:46.653Z,90.10
2019-05-06T09:17:15.048Z,90.40
2019-05-06T09:19:43.432Z,90.40
2019-05-06T09:22:12.900Z,90.60
2019-05-06T09:24:42.710Z,90.60
2019-05-06T09:27:15.923Z,90.80
2019-05-06T09:29:45.940Z,90.70
2019-05-06T09:32:16.055Z,90.70
2019-05-06T09:34:52.690Z,91.10
2019-05-06T09:37:24.086Z,91.20
2019-05-06T09:39:53.423Z,91.40
2019-05-06T09:42:23.011Z,91.70
2019-05-06T09:44:54.082Z,91.60
2019-05-06T09:47:23.405Z,91.60
2019-05-06T09:49:53.039Z,91.50
2019-05-06T09:52:23.139Z,91.20
2019-05-06T09:54:53.671Z,90.60
2019-05-06T09:57:29.510Z,90.00
2019-05-06T09:59:57.914Z,89.20
2019-05-06T10:02:26.343Z,88.80
2019-05-06T10:04:54.807Z,89.60
2019-05-06T10:07:23.293Z,90.00
2019-05-06T10:09:52.654Z,90.60
2019-05-06T10:12:21.271Z,91.30
2019-05-06T10:14:49.705Z,92.00
2019-05-06T10:17:18.125Z,92.20
2019-05-06T10:19:46.569Z,92.30
2019-05-06T10:22:14.958Z,92.50
2019-05-06T10:24:43.489Z,92.50
2019-05-06T10:27:12.240Z,93.00
2019-05-06T10:29:45.281Z,92.80
2019-05-06T10:32:32.817Z,93.10
2019-05-06T10:35:02.820Z,93.40
2019-05-06T10:37:52.891Z,93.90
2019-05-06T10:40:27.064Z,94.40
2019-05-06T10:43:16.753Z,94.90
2019-05-06T10:45:45.144Z,95.30
2019-05-06T10:48:13.565Z,95.40
2019-05-06T10:50:43.622Z,95.00
2019-05-06T10:53:23.402Z,94.10
2019-05-06T10:55:53.823Z,92.90
2019-05-06T10:58:22.647Z,92.10
2019-05-06T11:01:05.117Z,91.30
2019-05-06T11:03:33.513Z,90.30
2019-05-06T11:06:02.651Z,88.30
2019-05-06T11:08:32.595Z,87.80
2019-05-06T11:11:14.829Z,82.40
2019-05-06T11:13:32.266Z,79.80
2019-05-06T11:16:03.170Z,77.30
2019-05-06T11:18:33.171Z,75.00
2019-05-06T11:21:03.223Z,74.40
2019-05-06T11:23:31.011Z,74.20
2019-05-06T11:25:59.403Z,74.00
2019-05-06T11:28:42.705Z,72.90
2019-05-06T11:31:32.986Z,71.30
2019-05-06T11:34:05.315Z,69.50
2019-05-06T11:36:38.260Z,69.60
2019-05-06T11:39:07.838Z,70.10
2019-05-06T11:41:36.248Z,70.50
2019-05-06T11:44:04.810Z,70.10
2019-05-06T11:46:34.254Z,70.00
2019-05-06T11:49:02.728Z,71.10
2019-05-06T11:51:33.099Z,74.80
2019-05-06T11:54:04.385Z,77.80
2019-05-06T11:56:32.714Z,79.20
2019-05-06T11:59:02.449Z,79.90
2019-05-06T12:01:33.032Z,81.00
2019-05-06T12:04:02.718Z,81.30
2019-05-06T12:06:33.079Z,80.30
2019-05-06T12:09:06.103Z,78.80
2019-05-06T12:11:31.712Z,79.00
2019-05-06T12:14:02.390Z,79.20
2019-05-06T12:16:30.211Z,77.60
2019-05-06T12:18:59.930Z,75.20
2019-05-06T12:21:28.507Z,74.30
2019-05-06T12:23:56.923Z,73.50
2019-05-06T12:26:25.311Z,73.40
2019-05-06T12:28:53.710Z,73.50
2019-05-06T12:31:23.365Z,74.10
2019-05-06T12:33:53.342Z,75.10
2019-05-06T12:36:22.808Z,75.70
2019-05-06T12:39:07.848Z,75.30
2019-05-06T12:41:43.147Z,74.30
2019-05-06T12:44:13.134Z,73.50
2019-05-06T12:46:45.542Z,72.80
2019-05-06T12:49:14.027Z,71.40
2019-05-06T12:51:43.328Z,69.80
2019-05-06T12:54:12.891Z,69.30
2019-05-06T12:56:42.461Z,68.70
2019-05-06T12:59:12.719Z,68.20
2019-05-06T13:01:44.965Z,66.30
2019-05-06T13:04:13.584Z,65.60
2019-05-06T13:06:46.019Z,65.10
2019-05-06T13:09:12.681Z,64.80
2019-05-06T13:11:43.141Z,65.40
2019-05-06T13:14:12.689Z,65.80
2019-05-06T13:16:42.584Z,66.50
2019-05-06T13:19:12.144Z,68.10
2019-05-06T13:21:42.261Z,68.70
2019-05-06T13:24:12.159Z,69.80
2019-05-06T13:26:42.909Z,70.80
2019-05-06T13:29:13.023Z,72.60
2019-05-06T13:31:43.418Z,74.70
2019-05-06T13:34:13.452Z,76.30
2019-05-06T13:36:42.800Z,78.30
2019-05-06T13:39:14.921Z,80.60
2019-05-06T13:41:42.107Z,81.30
2019-05-06T13:44:13.292Z,82.10
2019-05-06T13:46:44.416Z,82.80
2019-05-06T13:49:23.783Z,81.40
2019-05-06T13:52:04.400Z,80.80
2019-05-06T13:54:33.071Z,79.80
2019-05-06T13:57:02.967Z,78.60
2019-05-06T13:59:34.753Z,77.90
2019-05-06T14:02:06.941Z,77.20
2019-05-06T14:04:33.380Z,77.80
2019-05-06T14:07:04.724Z,78.40
2019-05-06T14:09:39.024Z,78.80
2019-05-06T14:12:02.585Z,79.80
2019-05-06T14:14:32.258Z,81.00
2019-05-06T14:17:00.794Z,81.80
2019-05-06T14:19:29.190Z,81.80
2019-05-06T14:21:57.705Z,79.30
2019-05-06T14:24:26.085Z,77.50
2019-05-06T14:26:58.960Z,75.40
2019-05-06T14:29:27.849Z,73.60
2019-05-06T14:31:57.904Z,72.40
2019-05-06T14:34:26.286Z,71.50
2019-05-06T14:36:54.688Z,71.70
2019-05-06T14:39:24.739Z,71.40
2019-05-06T14:41:54.727Z,71.60
2019-05-06T14:44:23.480Z,72.60
2019-05-06T14:46:53.468Z,73.30
2019-05-06T14:49:22.485Z,73.90
2019-05-06T14:51:53.513Z,74.30
2019-05-06T14:54:22.142Z,74.20
2019-05-06T14:56:54.805Z,74.70
2019-05-06T14:59:23.538Z,74.80
2019-05-06T15:01:53.598Z,74.50
2019-05-06T15:04:22.991Z,75.30
2019-05-06T15:06:53.006Z,75.20
2019-05-06T15:09:22.611Z,75.40
2019-05-06T15:11:51.207Z,75.40
2019-05-06T15:14:19.607Z,75.00
2019-05-06T15:16:48.018Z,75.90
2019-05-06T15:19:16.438Z,77.10
2019-05-06T15:21:44.842Z,77.20
2019-05-06T15:24:14.374Z,77.90
2019-05-06T15:26:43.104Z,78.40
2019-05-06T15:29:12.645Z,78.50
2019-05-06T15:31:48.819Z,78.00
2019-05-06T15:34:24.441Z,77.80
2019-05-06T15:36:54.468Z,78.10
2019-05-06T15:39:23.555Z,78.80
2019-05-06T15:41:52.367Z,79.70
2019-05-06T15:44:23.110Z,79.90
2019-05-06T15:46:52.670Z,79.40
2019-05-06T15:49:22.290Z,79.90
2019-05-06T15:51:52.336Z,80.40
2019-05-06T15:54:22.724Z,81.40
2019-05-06T15:56:53.121Z,80.00
2019-05-06T15:59:22.927Z,79.60
2019-05-06T16:01:53.168Z,79.60
2019-05-06T16:04:22.893Z,78.60
2019-05-06T16:06:52.950Z,77.80
2019-05-06T16:09:23.401Z,77.90
2019-05-06T16:11:53.392Z,78.60
2019-05-06T16:14:23.011Z,79.50
2019-05-06T16:16:52.781Z,78.20
2019-05-06T16:19:22.823Z,78.60
2019-05-06T16:21:52.413Z,78.40
2019-05-06T16:24:22.697Z,78.60
2019-05-06T16:26:52.740Z,78.20
2019-05-06T16:29:22.858Z,78.00
2019-05-06T16:31:51.841Z,78.20
2019-05-06T16:34:22.611Z,78.00
2019-05-06T16:36:50.620Z,78.10
2019-05-06T16:39:19.032Z,78.20
2019-05-06T16:41:47.479Z,78.00
2019-05-06T16:44:15.903Z,79.50
2019-05-06T16:46:44.310Z,80.80
2019-05-06T16:49:14.136Z,81.90
2019-05-06T16:51:44.238Z,83.20
2019-05-06T16:54:12.825Z,83.60
2019-05-06T16:56:45.300Z,83.90
2019-05-06T16:59:13.739Z,83.50
2019-05-06T17:01:43.727Z,83.70
2019-05-06T17:04:14.654Z,84.00
2019-05-06T17:06:44.775Z,83.60
2019-05-06T17:09:20.842Z,83.30
2019-05-06T17:11:43.329Z,82.30
2019-05-06T17:14:12.306Z,82.10
2019-05-06T17:16:42.349Z,81.60
2019-05-06T17:19:12.691Z,81.00
2019-05-06T17:21:42.271Z,80.40
2019-05-06T17:24:12.872Z,79.20
2019-05-06T17:26:42.586Z,79.10
2019-05-06T17:29:14.090Z,78.90
2019-05-06T17:31:44.207Z,78.30
2019-05-06T17:34:14.393Z,78.60
2019-05-06T17:36:42.883Z,78.90
2019-05-06T17:39:11.773Z,78.90
2019-05-06T17:41:47.629Z,79.00
2019-05-06T17:44:12.014Z,79.10
2019-05-06T17:46:42.720Z,79.30
2019-05-06T17:49:16.083Z,79.70
2019-05-06T17:51:52.387Z,79.90
2019-05-06T17:54:24.094Z,80.60
2019-05-06T17:56:52.454Z,81.30
2019-05-06T17:59:21.869Z,81.70
2019-05-06T18:01:53.194Z,82.00
2019-05-06T18:04:22.719Z,82.50
2019-05-06T18:06:53.087Z,82.90
2019-05-06T18:09:22.351Z,83.00
2019-05-06T18:11:58.411Z,83.30
2019-05-06T18:14:22.993Z,83.70
2019-05-06T18:16:53.601Z,84.00
2019-05-06T18:19:22.301Z,84.30
2019-05-06T18:21:52.376Z,84.40
2019-05-06T18:24:22.904Z,84.90
2019-05-06T18:26:52.865Z,85.40
2019-05-06T18:29:22.258Z,85.90
2019-05-06T18:31:52.558Z,86.20
2019-05-06T18:34:23.042Z,86.70
2019-05-06T18:36:52.449Z,87.20
2019-05-06T18:39:22.344Z,87.80
2019-05-06T18:41:53.115Z,88.60
2019-05-06T18:44:22.742Z,89.20
2019-05-06T18:46:53.106Z,90.00
2019-05-06T18:49:33.583Z,90.40
2019-05-06T18:52:02.187Z,90.60
2019-05-06T18:54:33.189Z,91.20
2019-05-06T18:57:04.301Z,91.70
2019-05-06T18:59:32.950Z,92.10
2019-05-06T19:02:02.109Z,92.30
2019-05-06T19:04:41.956Z,92.60
2019-05-06T19:07:16.132Z,93.00
2019-05-06T19:09:48.233Z,93.20
2019-05-06T19:12:28.841Z,93.60
2019-05-06T19:14:46.723Z,94.10
2019-05-06T19:17:15.115Z,95.10
2019-05-06T19:19:43.547Z,95.60
2019-05-06T19:22:13.923Z,96.00
2019-05-06T19:24:42.671Z,96.60
2019-05-06T19:27:12.776Z,96.60
2019-05-06T19:29:43.260Z,97.00
2019-05-06T19:32:12.279Z,97.20
2019-05-06T19:34:42.258Z,97.30
2019-05-06T19:37:10.947Z,97.60
2019-05-06T19:39:39.397Z,97.90
2019-05-06T19:42:08.896Z,98.10
2019-05-06T19:44:37.327Z,98.40
2019-05-06T19:47:05.712Z,98.70
2019-05-06T19:49:34.110Z,98.90
2019-05-06T19:52:03.137Z,99.00
2019-05-06T19:54:33.047Z,99.10
2019-05-06T19:57:02.497Z,99.20
2019-05-06T19:59:33.055Z,99.40
2019-05-06T20:02:01.305Z,99.50
2019-05-06T20:04:33.094Z,99.60
2019-05-06T20:07:02.679Z,99.70
2019-05-06T20:09:52.189Z,99.80
2019-05-06T20:12:39.548Z,99.90
2019-05-06T20:15:25.686Z,99.90
2019-05-06T20:17:54.227Z,99.90
2019-05-06T20:20:22.963Z,99.90
2019-05-06T20:22:54.747Z,99.90
2019-05-06T20:25:23.707Z,99.90
2019-05-06T20:27:53.566Z,99.90
2019-05-06T20:30:29.291Z,99.90
2019-05-06T20:32:57.675Z,99.90
2019-05-06T20:35:26.310Z,99.90
2019-05-06T20:37:57.226Z,99.90
2019-05-06T20:40:25.632Z,99.90
2019-05-06T20:42:54.020Z,99.90
2019-05-06T20:45:22.542Z,99.90
2019-05-06T20:47:52.502Z,99.90
2019-05-06T20:50:22.613Z,99.90
2019-05-06T20:52:51.969Z,99.90
2019-05-06T20:55:22.943Z,99.90
2019-05-06T20:57:52.896Z,99.90
2019-05-06T21:00:22.514Z,99.90
2019-05-06T21:02:53.301Z,99.90
2019-05-06T21:05:22.825Z,99.90
2019-05-06T21:07:52.546Z,99.90
2019-05-06T21:10:22.032Z,99.90
2019-05-06T21:12:53.007Z,99.90
2019-05-06T21:15:22.718Z,99.90
2019-05-06T21:17:50.714Z,99.90
2019-05-06T21:20:19.192Z,99.90
2019-05-06T21:22:49.242Z,99.90
2019-05-06T21:25:17.600Z,99.90
2019-05-06T21:27:46.026Z,99.90
2019-05-06T21:30:14.876Z,99.90
2019-05-06T21:32:43.297Z,99.90
2019-05-06T21:35:12.593Z,99.90
2019-05-06T21:37:42.261Z,99.90
2019-05-06T21:40:12.330Z,99.90
2019-05-06T21:42:42.904Z,99.90
2019-05-06T21:45:12.529Z,99.90
2019-05-06T21:47:44.384Z,99.90
2019-05-06T21:50:12.066Z,99.90
2019-05-06T21:52:42.815Z,99.90
2019-05-06T21:55:12.911Z,99.90
2019-05-06T21:57:42.268Z,99.90
2019-05-06T22:00:13.888Z,99.90
2019-05-06T22:02:42.686Z,99.90
2019-05-06T22:05:13.135Z,99.90
2019-05-06T22:07:43.318Z,99.90
2019-05-06T22:10:11.184Z,99.90
2019-05-06T22:12:39.603Z,99.90
2019-05-06T22:15:07.984Z,99.90
2019-05-06T22:17:36.428Z,99.90
2019-05-06T22:20:05.165Z,99.90
2019-05-06T22:22:35.198Z,99.90
2019-05-06T22:25:05.208Z,99.90
2019-05-06T22:27:33.585Z,99.90
2019-05-06T22:30:03.215Z,99.90
2019-05-06T22:32:33.332Z,99.90
2019-05-06T22:35:02.357Z,99.90
2019-05-06T22:37:33.169Z,99.90
2019-05-06T22:40:02.331Z,99.90
2019-05-06T22:42:32.282Z,99.90
2019-05-06T22:45:01.986Z,99.90
2019-05-06T22:47:32.404Z,99.90
2019-05-06T22:50:02.172Z,99.90
2019-05-06T22:52:32.539Z,99.90
2019-05-06T22:55:04.034Z,99.90
2019-05-06T22:57:33.066Z,99.90
2019-05-06T23:00:03.524Z,99.90
2019-05-06T23:02:33.208Z,99.90
2019-05-06T23:05:04.343Z,99.90
2019-05-06T23:07:34.095Z,99.90
2019-05-06T23:10:02.895Z,99.90
2019-05-06T23:12:32.536Z,99.90
2019-05-06T23:15:02.648Z,99.90
2019-05-06T23:17:34.224Z,99.90
2019-05-06T23:20:02.330Z,99.90
2019-05-06T23:22:32.091Z,99.90
2019-05-06T23:25:02.173Z,99.90
2019-05-06T23:27:30.777Z,99.90
2019-05-06T23:29:59.151Z,99.90
2019-05-06T23:32:27.551Z,99.90
2019-05-06T23:34:55.932Z,99.90
2019-05-06T23:37:23.606Z,99.90
2019-05-06T23:40:30.182Z,99.90
2019-05-06T23:43:35.085Z,99.90
2019-05-06T23:46:40.130Z,99.90
2019-05-06T23:49:45.127Z,99.90
2019-05-06T23:52:51.908Z,99.90
2019-05-06T23:55:56.821Z,99.90
2019-05-06T23:58:24.311Z,99.90
